Ровно

Карта отелей и гостиниц, располагающихся рядом с аэропортом Ровно :

Ровно
Ровно
Ровненская область 50° 36' 28.2492" N, 26° 8' 27.6504" E
Код аэродрома ИКАО
UKLR
Код аэродрома RU
УКЛР
Координаты
N50.60785° E026.14101°
Превышение над уровнем моря
232
Основная полоса
11/29
Курс магнитный
111,8/291,8
Длина основной ВПП
2626
Ширина основной ВПП
42
Покрытие основной ВПП
Твёрдое (асфальтобетон)
Освещение ВПП
Постоянное
Тип: 
Аэродром
Класс аэродрома: 
Международный
Принадлежность: 
ГА
Статус: 
Действующий
Сайт: 
www.aeroport.rv.ua
E-mail аэродрома: 
rivneaero@rv.uar.net
Страна: 
Украина
Регион: 
Ровненская область
Город: 
Ровно
Дополнительная информация: 
Оператор: Обласне комунальне підприємство "Міжнародний аеропорт Рівне". Коэфф. PCN23/R/B/X/T. Подача запроса накануне дня прилета не позднее 1400 (1300) UTC.
Погода: 

Авиационная погода в Ровно

Регион: 
Погода METAR: 
UKLR 221500Z 31004MPS 9999 FEW022CB SCT022 M05/M08 Q1014 NOSIG
Время наблюдения
2022-01-22T15:00:00Z
Температура C
-5.0
Точка росы
-8.0
Направление ветра
310
Скорость ветра (узлы)
8
Метео видимость
6.21
Облачность
FEW
SCT
Нижняя граница облачности (футы)
2200
2200
Явления погоды
Условия полета
VFR
Аэропорт подробнее: 
FEW – незначительная облачность; SCT – разбросанная отдельная облачность;

Найти трансфер

С помощью этой формы Вы можете найти трансфер из аэропорта Ровно в город, аэропорт или вокзал:

Погода в аэропортах:

Авиационная погода в Храброво

Регион: 
Погода METAR: 
UMKK 221800Z 35006MPS 8000 2300E -SHSN SCT008 BKN016CB 01/M02 Q1023 R24/690195 NOSIG RMK QFE766/1021
Время наблюдения
2022-01-22T18:00:00Z
Температура C
1.0
Точка росы
-2.0
Направление ветра
350
Скорость ветра (узлы)
12
Метео видимость
4.97
Облачность
SCT
BKN
Нижняя граница облачности (футы)
800
1600
Явления погоды
-SHSN
Условия полета
MVFR
Аэропорт подробнее: 
SCT – разбросанная отдельная облачность; BKN – значительная (рассеянная, разорванная) облачность;
-SHSN - слабый ливневой снег;

Авиационная погода в Ивало

Регион: 
Погода METAR: 
EFIV 221750Z 21013KT 170V230 9999 -SHSN BLSN OVC011 M06/M08 Q1006
Время наблюдения
2022-01-22T17:50:00Z
Температура C
-6.0
Точка росы
-8.0
Направление ветра
210
Скорость ветра (узлы)
13
Метео видимость
6.21
Облачность
OVC
Нижняя граница облачности (футы)
1100
Явления погоды
-SHSN BLSN
Условия полета
MVFR
OVC – сплошная облачность;
-SHSN - слабый ливневой снег, BLSN – метель низовая или общая;

Авиационная погода в Перми

Регион: 
Погода METAR: 
USPP 221800Z 11003MPS 5000 -SN BR OVC015 M15/M17 Q1029 R21/090060 NOSIG RMK QFE760
Время наблюдения
2022-01-22T18:00:00Z
Температура C
-15.0
Точка росы
-17.0
Направление ветра
110
Скорость ветра (узлы)
6
Метео видимость
3.11
Облачность
OVC
Нижняя граница облачности (футы)
1500
Явления погоды
-SN BR
Условия полета
MVFR
Аэропорт подробнее: 
OVC – сплошная облачность;
-SN – слабый снег; BR – дымка (видимость от 1 до 9 км);

Авиационная погода в Угольном

Регион: 
Погода METAR: 
UHMA 221800Z 36003MPS 4100 -SN FEW023 SCT042 M21/M23 Q0990 R01/////// NOSIG RMK TDZ R01/36003G04MPS END R01/33001MPS QFE738/0985
Время наблюдения
2022-01-22T18:00:00Z
Температура C
-21.0
Точка росы
-23.0
Направление ветра
360
Скорость ветра (узлы)
6
Метео видимость
2.55
Облачность
FEW
SCT
Нижняя граница облачности (футы)
2300
4200
Явления погоды
-SN
Условия полета
IFR
Аэропорт подробнее: 
FEW – незначительная облачность; SCT – разбросанная отдельная облачность;
-SN – слабый снег;